Terminal Aerodrome Forecast
Issued by NWS Mt. Holly, NJ

Home | Current Version | Previous Version | Text Only | Print | Product List | Glossary On
Versions: 1 2 3 4 5 6 7 8 9 10 11 12 13 14 15 16 17 18 19 20 21
000
FTUS41 KPHI 220600 AAA
TAFABE
TAF AMD
KABE 220608Z 2206/2306 05007KT 6SM -RA BKN012 BKN025
     FM221200 03009KT 4SM -RA BR SCT008 OVC012
     FM221500 03012G20KT 5SM -RA BR BKN020
     FM222100 36014KT P6SM -SHRA OVC025=

USA.gov is the U.S. government's official web portal to all federal, state and local government web resources and services.